createdAt,value
2018-03-04T00:00:21.341Z,100021.86
2018-03-04T00:02:47.167Z,100024.72
2018-03-04T00:05:12.980Z,100018.27
2018-03-04T00:07:39.159Z,100013.84
2018-03-04T00:10:05.958Z,100011.98
2018-03-04T00:12:31.788Z,100018.05
2018-03-04T00:14:57.605Z,100018.03
2018-03-04T00:17:30.548Z,100014.00
2018-03-04T00:19:56.342Z,100011.39
2018-03-04T00:22:34.622Z,100009.73
2018-03-04T00:25:00.469Z,100011.31
2018-03-04T00:27:26.289Z,100011.75
2018-03-04T00:29:52.527Z,100007.05
2018-03-04T00:32:18.316Z,100005.99
2018-03-04T00:34:44.158Z,100009.38
2018-03-04T00:37:10.078Z,100014.88
2018-03-04T00:39:35.884Z,100016.71
2018-03-04T00:42:01.692Z,100002.05
2018-03-04T00:44:28.342Z,100008.31
2018-03-04T00:46:54.220Z,100006.91
2018-03-04T00:49:21.827Z,100004.32
2018-03-04T00:51:47.667Z,100012.18
2018-03-04T00:54:13.472Z,100008.95
2018-03-04T00:56:39.313Z,100007.48
2018-03-04T00:59:05.160Z,100011.23
2018-03-04T01:01:30.949Z,99998.58
2018-03-04T01:03:56.780Z,100003.50
2018-03-04T01:06:23.386Z,100007.75
2018-03-04T01:08:49.204Z,100003.19
2018-03-04T01:11:15.037Z,99999.09
2018-03-04T01:13:40.849Z,100002.76
2018-03-04T01:16:06.665Z,100004.25
2018-03-04T01:18:32.484Z,99998.47
2018-03-04T01:20:58.335Z,100001.21
2018-03-04T01:23:24.202Z,99987.58
2018-03-04T01:25:50.041Z,99991.87
2018-03-04T01:28:15.882Z,99995.27
2018-03-04T01:30:41.715Z,99987.75
2018-03-04T01:33:07.530Z,99989.75
2018-03-04T01:35:33.361Z,99993.42
2018-03-04T01:37:59.185Z,99992.36
2018-03-04T01:40:25.007Z,99998.23
2018-03-04T01:42:50.874Z,99988.26
2018-03-04T01:45:16.667Z,99988.84
2018-03-04T01:47:42.479Z,99998.66
2018-03-04T01:50:08.319Z,99995.67
2018-03-04T01:52:34.792Z,99994.64
2018-03-04T01:55:01.799Z,99988.69
2018-03-04T01:57:28.360Z,99987.66
2018-03-04T01:59:54.176Z,99989.07
2018-03-04T02:02:20.022Z,99985.33
2018-03-04T02:04:45.837Z,99981.22
2018-03-04T02:07:11.698Z,99978.70
2018-03-04T02:09:37.615Z,99970.73
2018-03-04T02:12:04.388Z,99965.59
2018-03-04T02:14:30.191Z,99959.92
2018-03-04T02:16:57.237Z,99963.08
2018-03-04T02:19:23.058Z,99963.59
2018-03-04T02:21:48.859Z,99968.93
2018-03-04T02:24:14.679Z,99956.36
2018-03-04T02:26:40.488Z,99961.57
2018-03-04T02:29:06.286Z,99959.48
2018-03-04T02:31:32.130Z,99954.60
2018-03-04T02:33:57.984Z,99947.71
2018-03-04T02:36:24.724Z,99945.81
2018-03-04T02:38:50.956Z,99943.89
2018-03-04T02:41:16.788Z,99935.65
2018-03-04T02:43:42.636Z,99929.31
2018-03-04T02:46:08.587Z,99922.42
2018-03-04T02:48:34.410Z,99932.11
2018-03-04T02:51:00.268Z,99929.75
2018-03-04T02:53:26.367Z,99934.55
2018-03-04T02:55:52.173Z,99930.45
2018-03-04T02:58:17.972Z,99932.46
2018-03-04T03:00:43.799Z,99930.38
2018-03-04T03:03:09.594Z,99923.40
2018-03-04T03:05:35.393Z,99930.61
2018-03-04T03:08:01.209Z,99926.78
2018-03-04T03:10:27.011Z,99915.20
2018-03-04T03:12:52.862Z,99922.18
2018-03-04T03:15:18.680Z,99918.75
2018-03-04T03:17:44.468Z,99915.80
2018-03-04T03:20:10.277Z,99913.52
2018-03-04T03:22:36.124Z,99922.18
2018-03-04T03:25:01.907Z,99918.24
2018-03-04T03:27:27.702Z,99916.86
2018-03-04T03:29:53.499Z,99920.92
2018-03-04T03:32:19.289Z,99915.20
2018-03-04T03:34:45.081Z,99904.19
2018-03-04T03:37:10.873Z,99906.03
2018-03-04T03:39:37.011Z,99896.97
2018-03-04T03:42:02.802Z,99897.92
2018-03-04T03:44:28.650Z,99893.20
2018-03-04T03:46:54.450Z,99899.42
2018-03-04T03:49:20.268Z,99893.31
2018-03-04T03:51:46.132Z,99895.56
2018-03-04T03:54:11.898Z,99884.33
2018-03-04T03:56:37.689Z,99888.86
2018-03-04T03:59:03.484Z,99890.08
2018-03-04T04:01:29.280Z,99879.16
2018-03-04T04:03:55.097Z,99877.34
2018-03-04T04:06:20.887Z,99868.89
2018-03-04T04:08:46.656Z,99864.09
2018-03-04T04:11:12.487Z,99859.99
2018-03-04T04:13:38.291Z,99868.17
2018-03-04T04:16:04.082Z,99866.17
2018-03-04T04:18:29.878Z,99863.65
2018-03-04T04:20:55.904Z,99852.52
2018-03-04T04:23:21.848Z,99855.69
2018-03-04T04:25:47.719Z,99852.31
2018-03-04T04:28:13.500Z,99849.50
2018-03-04T04:30:39.299Z,99841.16
2018-03-04T04:33:05.086Z,99839.59
2018-03-04T04:35:30.883Z,99840.29
2018-03-04T04:37:56.679Z,99840.23
2018-03-04T04:40:22.485Z,99839.34
2018-03-04T04:42:48.282Z,99835.94
2018-03-04T04:45:14.076Z,99832.68
2018-03-04T04:47:39.874Z,99841.58
2018-03-04T04:50:05.687Z,99825.91
2018-03-04T04:52:31.479Z,99824.50
2018-03-04T04:54:57.280Z,99825.63
2018-03-04T04:57:23.090Z,99821.34
2018-03-04T04:59:48.881Z,99822.12
2018-03-04T05:02:14.714Z,99813.56
2018-03-04T05:04:40.602Z,99816.02
2018-03-04T05:07:06.723Z,99813.08
2018-03-04T05:09:32.495Z,99812.58
2018-03-04T05:11:58.306Z,99813.48
2018-03-04T05:14:24.100Z,99808.02
2018-03-04T05:16:49.900Z,99808.23
2018-03-04T05:19:15.717Z,99819.51
2018-03-04T05:21:41.528Z,99825.20
2018-03-04T05:24:07.320Z,99817.96
2018-03-04T05:26:33.139Z,99821.02
2018-03-04T05:28:58.951Z,99824.36
2018-03-04T05:31:24.732Z,99813.56
2018-03-04T05:33:50.519Z,99792.59
2018-03-04T05:36:16.325Z,99807.80
2018-03-04T05:38:42.107Z,99807.53
2018-03-04T05:41:07.898Z,99802.87
2018-03-04T05:43:33.795Z,99807.03
2018-03-04T05:45:59.590Z,99802.08
2018-03-04T05:48:25.379Z,99800.09
2018-03-04T05:50:51.276Z,99798.73
2018-03-04T05:53:17.094Z,99795.42
2018-03-04T05:55:42.886Z,99793.86
2018-03-04T05:58:08.708Z,99794.77
2018-03-04T06:00:34.485Z,99791.97
2018-03-04T06:03:00.263Z,99797.70
2018-03-04T06:05:26.093Z,99791.70
2018-03-04T06:07:51.886Z,99796.21
2018-03-04T06:10:17.683Z,99796.78
2018-03-04T06:12:43.839Z,99790.66
2018-03-04T06:15:09.292Z,99787.06
2018-03-04T06:17:35.087Z,99790.30
2018-03-04T06:20:01.008Z,99796.41
2018-03-04T06:22:26.819Z,99791.89
2018-03-04T06:24:52.608Z,99786.88
2018-03-04T06:27:18.409Z,99784.23
2018-03-04T06:29:44.216Z,99782.91
2018-03-04T06:32:10.017Z,99779.00
2018-03-04T06:34:35.821Z,99777.08
2018-03-04T06:37:01.627Z,99776.27
2018-03-04T06:39:27.541Z,99767.45
2018-03-04T06:41:53.340Z,99773.77
2018-03-04T06:44:19.126Z,99767.22
2018-03-04T06:46:44.930Z,99763.36
2018-03-04T06:49:10.733Z,99766.31
2018-03-04T06:51:36.735Z,99766.50
2018-03-04T06:54:02.547Z,99767.51
2018-03-04T06:56:28.447Z,99768.38
2018-03-04T06:58:54.243Z,99764.43
2018-03-04T07:01:20.059Z,99770.53
2018-03-04T07:03:45.878Z,99763.00
2018-03-04T07:06:12.208Z,99761.95
2018-03-04T07:08:37.994Z,99755.05
2018-03-04T07:11:03.816Z,99764.18
2018-03-04T07:13:29.611Z,99762.06
2018-03-04T07:15:55.395Z,99764.13
2018-03-04T07:18:21.167Z,99764.73
2018-03-04T07:20:46.946Z,99762.47
2018-03-04T07:23:12.730Z,99769.47
2018-03-04T07:25:38.595Z,99762.14
2018-03-04T07:28:04.388Z,99769.73
2018-03-04T07:30:30.190Z,99770.33
2018-03-04T07:32:55.991Z,99772.61
2018-03-04T07:35:21.786Z,99760.09
2018-03-04T07:37:47.579Z,99765.05
2018-03-04T07:40:13.399Z,99765.22
2018-03-04T07:42:39.194Z,99770.45
2018-03-04T07:45:04.981Z,99774.15
2018-03-04T07:47:30.822Z,99775.70
2018-03-04T07:49:56.615Z,99762.52
2018-03-04T07:52:22.741Z,99776.39
2018-03-04T07:54:48.526Z,99759.55
2018-03-04T07:57:14.322Z,99762.77
2018-03-04T07:59:40.116Z,99759.34
2018-03-04T08:02:06.726Z,99756.59
2018-03-04T08:04:32.535Z,99760.47
2018-03-04T08:06:58.347Z,99760.62
2018-03-04T08:09:24.123Z,99755.44
2018-03-04T08:11:49.910Z,99753.12
2018-03-04T08:14:15.719Z,99749.80
2018-03-04T08:16:41.511Z,99746.80
2018-03-04T08:19:07.306Z,99747.69
2018-03-04T08:21:33.116Z,99751.77
2018-03-04T08:23:58.916Z,99755.86
2018-03-04T08:26:36.928Z,99753.43
2018-03-04T08:29:02.742Z,99756.96
2018-03-04T08:31:28.546Z,99747.24
2018-03-04T08:33:54.363Z,99744.14
2018-03-04T08:36:20.169Z,99747.92
2018-03-04T08:38:53.007Z,99751.34
2018-03-04T08:41:18.845Z,99749.12
2018-03-04T08:43:44.815Z,99751.34
2018-03-04T08:46:10.629Z,99747.02
2018-03-04T08:48:36.466Z,99752.46
2018-03-04T08:51:02.290Z,99750.52
2018-03-04T08:53:28.115Z,99752.58
2018-03-04T08:55:54.450Z,99754.39
2018-03-04T08:58:20.287Z,99748.48
2018-03-04T09:00:46.099Z,99747.51
2018-03-04T09:03:11.903Z,99753.67
2018-03-04T09:05:37.842Z,99750.91
2018-03-04T09:08:03.696Z,99764.93
2018-03-04T09:10:29.927Z,99756.54
2018-03-04T09:12:55.735Z,99756.15
2018-03-04T09:15:21.666Z,99769.12
2018-03-04T09:17:47.463Z,99751.91
2018-03-04T09:20:13.611Z,99756.03
2018-03-04T09:22:39.501Z,99757.20
2018-03-04T09:25:05.303Z,99754.53
2018-03-04T09:27:31.101Z,99754.96
2018-03-04T09:29:56.936Z,99750.52
2018-03-04T09:34:55.597Z,99745.37
2018-03-04T09:37:21.407Z,99750.20
2018-03-04T09:39:47.212Z,99743.80
2018-03-04T09:42:13.171Z,99741.55
2018-03-04T09:44:39.052Z,99745.77
2018-03-04T09:47:06.222Z,99716.36
2018-03-04T09:49:32.027Z,99738.95
2018-03-04T09:51:57.876Z,99739.38
2018-03-04T09:54:23.687Z,99727.58
2018-03-04T09:56:49.811Z,99727.65
2018-03-04T09:59:15.694Z,99729.38
2018-03-04T10:01:42.309Z,99723.00
2018-03-04T10:04:08.151Z,99723.07
2018-03-04T10:06:41.088Z,99729.58
2018-03-04T10:09:07.485Z,99721.35
2018-03-04T10:11:33.404Z,99719.77
2018-03-04T10:13:59.249Z,99720.53
2018-03-04T10:16:25.292Z,99717.77
2018-03-04T10:18:51.133Z,99712.96
2018-03-04T10:21:17.163Z,99713.39
2018-03-04T10:23:43.006Z,99710.94
2018-03-04T10:26:08.844Z,99702.56
2018-03-04T10:28:34.654Z,99711.53
2018-03-04T10:31:02.557Z,99709.53
2018-03-04T10:33:28.400Z,99705.72
2018-03-04T10:35:54.178Z,99704.89
2018-03-04T10:38:20.055Z,99701.26
2018-03-04T10:40:45.873Z,99693.66
2018-03-04T10:43:11.659Z,99686.97
2018-03-04T10:45:38.819Z,99696.27
2018-03-04T10:48:04.616Z,99685.39
2018-03-04T10:50:30.439Z,99689.08
2018-03-04T10:52:56.255Z,99693.91
2018-03-04T10:55:22.209Z,99682.71
2018-03-04T10:57:48.371Z,99685.64
2018-03-04T11:00:14.210Z,99683.91
2018-03-04T11:02:40.807Z,99680.52
2018-03-04T11:05:06.641Z,99682.30
2018-03-04T11:07:33.555Z,99686.15
2018-03-04T11:09:59.494Z,99683.20
2018-03-04T11:12:25.278Z,99675.95
2018-03-04T11:14:51.101Z,99675.68
2018-03-04T11:17:16.892Z,99676.27
2018-03-04T11:19:42.728Z,99678.27
2018-03-04T11:22:08.853Z,99672.19
2018-03-04T11:24:34.679Z,99666.67
2018-03-04T11:27:00.468Z,99662.14
2018-03-04T11:29:26.325Z,99659.23
2018-03-04T11:31:52.163Z,99655.52
2018-03-04T11:34:18.092Z,99651.98
2018-03-04T11:36:44.203Z,99643.08
2018-03-04T11:39:10.350Z,99641.56
2018-03-04T11:41:36.188Z,99642.88
2018-03-04T11:44:02.008Z,99642.75
2018-03-04T11:46:27.865Z,99646.88
2018-03-04T11:48:53.776Z,99630.63
2018-03-04T11:51:19.604Z,99635.81
2018-03-04T11:53:45.649Z,99637.48
2018-03-04T11:56:11.436Z,99636.99
2018-03-04T11:58:37.460Z,99636.20
2018-03-04T12:01:03.292Z,99632.36
2018-03-04T12:03:29.079Z,99633.75
2018-03-04T12:05:55.057Z,99615.22
2018-03-04T12:08:20.859Z,99609.67
2018-03-04T12:10:47.065Z,99613.44
2018-03-04T12:13:12.956Z,99600.76
2018-03-04T12:15:38.903Z,99609.67
2018-03-04T12:18:04.695Z,99608.38
2018-03-04T12:20:30.669Z,99607.83
2018-03-04T12:22:56.475Z,99601.65
2018-03-04T12:25:22.317Z,99594.58
2018-03-04T12:27:48.110Z,99586.67
2018-03-04T12:30:13.901Z,99588.30
2018-03-04T12:32:39.733Z,99579.61
2018-03-04T12:35:05.545Z,99577.17
2018-03-04T12:37:31.350Z,99575.06
2018-03-04T12:39:57.144Z,99568.83
2018-03-04T12:42:22.954Z,99559.50
2018-03-04T12:44:48.740Z,99554.67
2018-03-04T12:47:14.524Z,99557.57
2018-03-04T12:49:40.334Z,99553.22
2018-03-04T12:52:06.127Z,99563.03
2018-03-04T12:54:31.919Z,99554.69
2018-03-04T12:56:57.720Z,99553.18
2018-03-04T12:59:23.499Z,99549.16
2018-03-04T13:01:49.278Z,99549.38
2018-03-04T13:04:15.094Z,99553.57
2018-03-04T13:06:40.888Z,99552.98
2018-03-04T13:09:06.668Z,99543.61
2018-03-04T13:11:32.480Z,99552.98
2018-03-04T13:13:58.273Z,99549.93
2018-03-04T13:16:24.186Z,99550.27
2018-03-04T13:18:50.000Z,99551.30
2018-03-04T13:21:15.816Z,99535.81
2018-03-04T13:23:41.813Z,99536.92
2018-03-04T13:26:07.647Z,99542.34
2018-03-04T13:28:33.434Z,99549.59
2018-03-04T13:30:59.251Z,99537.09
2018-03-04T13:33:25.045Z,99542.66
2018-03-04T13:35:50.834Z,99544.89
2018-03-04T13:38:16.648Z,99542.91
2018-03-04T13:40:42.437Z,99538.33
2018-03-04T13:43:08.214Z,99542.34
2018-03-04T13:45:34.016Z,99537.41
2018-03-04T13:47:59.824Z,99530.05
2018-03-04T13:50:25.601Z,99533.34
2018-03-04T13:52:51.389Z,99532.52
2018-03-04T13:55:24.415Z,99522.58
2018-03-04T13:57:50.192Z,99531.36
2018-03-04T14:00:15.988Z,99535.84
2018-03-04T14:02:41.784Z,99529.91
2018-03-04T14:05:07.588Z,99520.78
2018-03-04T14:07:33.404Z,99518.02
2018-03-04T14:09:59.188Z,99512.31
2018-03-04T14:12:24.987Z,99514.53
2018-03-04T14:14:50.795Z,99509.56
2018-03-04T14:17:16.587Z,99514.06
2018-03-04T14:19:42.378Z,99515.39
2018-03-04T14:22:08.200Z,99506.34
2018-03-04T14:24:33.995Z,99510.94
2018-03-04T14:26:59.778Z,99508.38
2018-03-04T14:29:25.717Z,99511.04
2018-03-04T14:31:51.491Z,99517.13
2018-03-04T14:34:17.267Z,99523.45
2018-03-04T14:36:43.059Z,99515.03
2018-03-04T14:39:08.852Z,99515.27
2018-03-04T14:41:34.661Z,99508.13
2018-03-04T14:44:00.462Z,99513.45
2018-03-04T14:46:26.252Z,99515.07
2018-03-04T14:48:52.057Z,99515.38
2018-03-04T14:51:17.837Z,99509.80
2018-03-04T14:53:43.612Z,99514.14
2018-03-04T14:56:09.414Z,99508.98
2018-03-04T14:58:35.207Z,99511.02
2018-03-04T15:01:01.045Z,99512.91
2018-03-04T15:03:26.822Z,99512.61
2018-03-04T15:05:52.611Z,99507.48
2018-03-04T15:08:18.552Z,99511.58
2018-03-04T15:10:44.344Z,99510.86
2018-03-04T15:13:11.987Z,99509.48
2018-03-04T15:15:38.631Z,99509.41
2018-03-04T15:18:04.463Z,99501.75
2018-03-04T15:20:30.613Z,99490.52
2018-03-04T15:22:56.480Z,99479.91
2018-03-04T15:25:22.260Z,99478.86
2018-03-04T15:27:48.376Z,99476.03
2018-03-04T15:30:14.241Z,99471.38
2018-03-04T15:32:40.388Z,99483.47
2018-03-04T15:35:06.515Z,99485.74
2018-03-04T15:37:32.443Z,99490.89
2018-03-04T15:39:58.311Z,99486.66
2018-03-04T15:42:24.719Z,99480.61
2018-03-04T15:44:50.524Z,99489.38
2018-03-04T15:47:16.839Z,99488.87
2018-03-04T15:49:42.683Z,99487.30
2018-03-04T15:52:09.008Z,99480.44
2018-03-04T15:54:34.870Z,99471.97
2018-03-04T15:57:01.257Z,99469.53
2018-03-04T15:59:27.093Z,99468.41
2018-03-04T16:01:53.102Z,99462.50
2018-03-04T16:04:18.962Z,99462.52
2018-03-04T16:06:45.203Z,99462.80
2018-03-04T16:09:11.113Z,99460.57
2018-03-04T16:11:36.920Z,99459.00
2018-03-04T16:14:02.844Z,99453.72
2018-03-04T16:16:28.645Z,99456.42
2018-03-04T16:18:54.768Z,99459.61
2018-03-04T16:21:20.546Z,99461.58
2018-03-04T16:23:46.432Z,99457.95
2018-03-04T16:26:12.235Z,99450.57
2018-03-04T16:28:38.023Z,99462.70
2018-03-04T16:31:03.879Z,99447.22
2018-03-04T16:33:29.666Z,99451.70
2018-03-04T16:35:55.696Z,99457.23
2018-03-04T16:38:21.809Z,99463.92
2018-03-04T16:40:47.739Z,99457.39
2018-03-04T16:43:13.536Z,99454.50
2018-03-04T16:45:39.589Z,99461.48
2018-03-04T16:48:05.436Z,99461.27
2018-03-04T16:50:31.247Z,99453.82
2018-03-04T16:52:57.029Z,99455.73
2018-03-04T16:55:22.817Z,99460.39
2018-03-04T16:57:48.617Z,99460.63
2018-03-04T17:00:14.448Z,99456.16
2018-03-04T17:02:40.211Z,99450.63
2018-03-04T17:05:06.026Z,99452.19
2018-03-04T17:07:33.867Z,99448.27
2018-03-04T17:09:59.743Z,99460.72
2018-03-04T17:12:26.033Z,99459.07
2018-03-04T17:14:51.822Z,99449.09
2018-03-04T17:17:18.242Z,99448.06
2018-03-04T17:19:44.083Z,99453.05
2018-03-04T17:22:10.613Z,99440.50
2018-03-04T17:24:36.449Z,99435.58
2018-03-04T17:27:02.583Z,99427.63
2018-03-04T17:29:28.519Z,99432.88
2018-03-04T17:31:54.377Z,99436.30
2018-03-04T17:34:20.211Z,99438.42
2018-03-04T17:36:46.366Z,99439.23
2018-03-04T17:39:12.451Z,99445.34
2018-03-04T17:41:38.248Z,99455.33
2018-03-04T17:44:04.272Z,99451.00
2018-03-04T17:46:30.058Z,99452.67
2018-03-04T17:48:55.850Z,99444.23
2018-03-04T17:51:22.403Z,99450.36
2018-03-04T17:53:48.192Z,99439.20
2018-03-04T17:56:14.619Z,99424.27
2018-03-04T17:58:40.403Z,99412.95
2018-03-04T18:01:06.872Z,99402.42
2018-03-04T18:03:32.711Z,99406.13
2018-03-04T18:05:58.900Z,99396.88
2018-03-04T18:08:24.705Z,99403.60
2018-03-04T18:10:51.457Z,99406.66
2018-03-04T18:13:17.239Z,99397.28
2018-03-04T18:15:43.727Z,99403.48
2018-03-04T18:18:09.532Z,99401.28
2018-03-04T18:20:35.502Z,99398.28
2018-03-04T18:23:01.310Z,99398.67
2018-03-04T18:25:27.627Z,99398.00
2018-03-04T18:27:53.409Z,99394.84
2018-03-04T18:30:19.244Z,99390.77
2018-03-04T18:32:45.063Z,99382.55
2018-03-04T18:35:10.955Z,99386.28
2018-03-04T18:37:36.755Z,99388.16
2018-03-04T18:40:02.591Z,99385.30
2018-03-04T18:42:28.395Z,99384.58
2018-03-04T18:44:54.180Z,99382.04
2018-03-04T18:47:19.980Z,99373.88
2018-03-04T18:49:45.762Z,99369.35
2018-03-04T18:52:11.550Z,99371.41
2018-03-04T18:54:37.362Z,99368.17
2018-03-04T18:57:03.175Z,99380.07
2018-03-04T18:59:28.957Z,99376.31
2018-03-04T19:01:55.203Z,99376.21
2018-03-04T19:04:20.997Z,99371.27
2018-03-04T19:06:46.818Z,99371.41
2018-03-04T19:09:12.649Z,99374.25
2018-03-04T19:11:38.448Z,99372.92
2018-03-04T19:14:04.240Z,99373.81
2018-03-04T19:16:30.052Z,99370.80
2018-03-04T19:18:55.851Z,99369.97
2018-03-04T19:21:21.637Z,99375.34
2018-03-04T19:23:47.451Z,99371.55
2018-03-04T19:26:13.249Z,99368.23
2018-03-04T19:28:39.053Z,99366.77
2018-03-04T19:31:04.961Z,99360.06
2018-03-04T19:33:30.749Z,99361.52
2018-03-04T19:35:56.632Z,99360.91
2018-03-04T19:38:22.511Z,99350.66
2018-03-04T19:40:48.327Z,99352.00
2018-03-04T19:43:14.099Z,99353.64
2018-03-04T19:45:39.914Z,99351.76
2018-03-04T19:48:05.725Z,99349.02
2018-03-04T19:50:31.515Z,99344.58
2018-03-04T19:52:57.409Z,99349.45
2018-03-04T19:55:23.204Z,99347.99
2018-03-04T19:57:49.020Z,99346.45
2018-03-04T20:00:14.817Z,99351.88
2018-03-04T20:02:40.608Z,99345.84
2018-03-04T20:05:06.406Z,99339.56
2018-03-04T20:07:32.235Z,99337.09
2018-03-04T20:09:58.027Z,99339.23
2018-03-04T20:12:23.827Z,99335.47
2018-03-04T20:14:49.890Z,99329.72
2018-03-04T20:17:15.740Z,99326.81
2018-03-04T20:19:41.559Z,99324.92
2018-03-04T20:22:07.388Z,99326.72
2018-03-04T20:24:33.224Z,99320.41
2018-03-04T20:26:59.486Z,99322.45
2018-03-04T20:29:25.480Z,99324.10
2018-03-04T20:31:51.385Z,99324.91
2018-03-04T20:34:17.277Z,99320.63
2018-03-04T20:36:43.263Z,99317.30
2018-03-04T20:39:09.632Z,99319.67
2018-03-04T20:41:35.446Z,99327.19
2018-03-04T20:44:01.271Z,99314.22
2018-03-04T20:46:27.112Z,99318.44
2018-03-04T20:48:52.966Z,99311.52
2018-03-04T20:51:18.776Z,99309.14
2018-03-04T20:53:45.178Z,99302.58
2018-03-04T20:56:11.022Z,99301.34
2018-03-04T20:58:36.874Z,99302.19
2018-03-04T21:01:02.806Z,99305.66
2018-03-04T21:03:30.710Z,99295.64
2018-03-04T21:05:56.495Z,99294.50
2018-03-04T21:08:22.305Z,99299.53
2018-03-04T21:10:48.161Z,99294.88
2018-03-04T21:13:13.967Z,99293.16
2018-03-04T21:15:39.763Z,99295.27
2018-03-04T21:18:06.533Z,99295.45
2018-03-04T21:20:33.361Z,99291.31
2018-03-04T21:22:59.208Z,99294.83
2018-03-04T21:25:25.136Z,99292.17
2018-03-04T21:27:51.131Z,99295.27
2018-03-04T21:30:17.463Z,99292.83
2018-03-04T21:32:44.325Z,99295.34
2018-03-04T21:35:11.200Z,99294.30
2018-03-04T21:37:38.042Z,99296.39
2018-03-04T21:40:04.156Z,99290.45
2018-03-04T21:42:30.786Z,99275.68
2018-03-04T21:44:56.646Z,99279.58
2018-03-04T21:47:22.847Z,99271.68
2018-03-04T21:49:48.715Z,99268.43
2018-03-04T21:52:14.809Z,99260.00
2018-03-04T21:54:40.646Z,99249.92
2018-03-04T21:57:06.460Z,99249.78
2018-03-04T21:59:32.444Z,99252.63
2018-03-04T22:01:58.248Z,99250.12
2018-03-04T22:04:24.046Z,99251.78
2018-03-04T22:06:49.964Z,99260.05
2018-03-04T22:09:15.750Z,99258.19
2018-03-04T22:11:41.552Z,99252.11
2018-03-04T22:14:07.344Z,99245.13
2018-03-04T22:16:33.139Z,99243.50
2018-03-04T22:18:58.944Z,99249.11
2018-03-04T22:21:24.723Z,99250.88
2018-03-04T22:23:50.499Z,99250.20
2018-03-04T22:26:16.306Z,99246.03
2018-03-04T22:28:42.078Z,99247.22
2018-03-04T22:31:07.873Z,99248.84
2018-03-04T22:33:34.009Z,99242.03
2018-03-04T22:35:59.817Z,99237.70
2018-03-04T22:38:25.955Z,99235.25
2018-03-04T22:40:51.763Z,99233.91
2018-03-04T22:43:17.556Z,99235.57
2018-03-04T22:45:43.349Z,99234.25
2018-03-04T22:48:09.407Z,99229.73
2018-03-04T22:50:35.199Z,99228.02
2018-03-04T22:53:00.996Z,99216.28
2018-03-04T22:55:26.824Z,99218.28
2018-03-04T22:57:52.620Z,99218.27
2018-03-04T23:00:18.431Z,99219.42
2018-03-04T23:02:44.242Z,99219.54
2018-03-04T23:05:10.038Z,99208.62
2018-03-04T23:07:35.814Z,99205.91
2018-03-04T23:10:02.001Z,99213.16
2018-03-04T23:12:27.817Z,99213.39
2018-03-04T23:14:53.645Z,99211.70
2018-03-04T23:17:19.439Z,99202.46
2018-03-04T23:19:45.245Z,99207.38
2018-03-04T23:22:11.030Z,99206.23
2018-03-04T23:24:36.864Z,99199.73
2018-03-04T23:27:02.666Z,99203.02
2018-03-04T23:29:28.469Z,99188.98
2018-03-04T23:31:54.274Z,99188.83
2018-03-04T23:34:20.134Z,99180.45
2018-03-04T23:36:45.931Z,99187.45
2018-03-04T23:39:11.750Z,99194.59
2018-03-04T23:41:37.543Z,99188.48
2018-03-04T23:44:03.338Z,99179.70
2018-03-04T23:46:29.151Z,99176.78
2018-03-04T23:48:54.956Z,99167.90
2018-03-04T23:51:20.761Z,99167.85
2018-03-04T23:53:46.574Z,99166.77
2018-03-04T23:56:12.367Z,99173.07
2018-03-04T23:58:38.168Z,99181.26
